createdAt,value
2018-12-16T00:00:17.662Z,1009.12
2018-12-16T00:01:26.328Z,1009.13
2018-12-16T00:02:34.983Z,1009.18
2018-12-16T00:03:43.655Z,1009.2
2018-12-16T00:04:52.315Z,1009.21
2018-12-16T00:06:00.992Z,1009.28
2018-12-16T00:07:09.656Z,1009.3
2018-12-16T00:08:18.580Z,1009.33
2018-12-16T00:09:27.243Z,1009.32
2018-12-16T00:10:36.166Z,1009.28
2018-12-16T00:11:44.838Z,1009.25
2018-12-16T00:12:53.496Z,1009.23
2018-12-16T00:14:03.806Z,1009.2
2018-12-16T00:15:12.472Z,1009.14
2018-12-16T00:16:21.179Z,1009.07
2018-12-16T00:17:29.839Z,1009.07
2018-12-16T00:18:38.509Z,1009.13
2018-12-16T00:19:47.173Z,1009.09
2018-12-16T00:20:55.845Z,1009.1
2018-12-16T00:22:04.504Z,1009.08
2018-12-16T00:23:13.237Z,1009.12
2018-12-16T00:24:21.897Z,1009.07
2018-12-16T00:25:30.560Z,1009.07
2018-12-16T00:26:39.215Z,1009.12
2018-12-16T00:27:47.879Z,1009.07
2018-12-16T00:28:56.544Z,1009.13
2018-12-16T00:30:05.210Z,1009.13
2018-12-16T00:31:13.879Z,1009.13
2018-12-16T00:32:22.540Z,1009.09
2018-12-16T00:33:31.227Z,1009.03
2018-12-16T00:34:39.898Z,1009.07
2018-12-16T00:35:48.570Z,1009.04
2018-12-16T00:36:57.487Z,1009.06
2018-12-16T00:38:06.147Z,1009.06
2018-12-16T00:39:14.806Z,1009.08
2018-12-16T00:40:23.987Z,1009.06
2018-12-16T00:41:32.644Z,1009.08
2018-12-16T00:42:41.313Z,1009.04
2018-12-16T00:43:49.971Z,1009.09
2018-12-16T00:44:58.658Z,1009.02
2018-12-16T00:46:07.319Z,1009
2018-12-16T00:47:15.981Z,1008.97
2018-12-16T00:48:24.902Z,1008.98
2018-12-16T00:49:33.564Z,1008.98
2018-12-16T00:50:42.234Z,1009.01
2018-12-16T00:51:50.899Z,1009.05
2018-12-16T00:52:59.815Z,1009.09
2018-12-16T00:54:08.487Z,1009.08
2018-12-16T00:55:17.159Z,1009.12
2018-12-16T00:56:25.822Z,1009.1
2018-12-16T00:57:34.485Z,1009.1
2018-12-16T00:58:43.145Z,1009.11
2018-12-16T00:59:51.820Z,1009.08
2018-12-16T01:01:00.490Z,1009.06
2018-12-16T01:02:09.157Z,1009.06
2018-12-16T01:03:17.818Z,1009.01
2018-12-16T01:04:26.481Z,1009
2018-12-16T01:05:35.142Z,1008.95
2018-12-16T01:06:43.817Z,1008.97
2018-12-16T01:07:52.480Z,1008.98
2018-12-16T01:09:01.158Z,1008.99
2018-12-16T01:10:09.838Z,1008.91
2018-12-16T01:11:18.501Z,1008.96
2018-12-16T01:12:27.166Z,1008.99
2018-12-16T01:13:36.098Z,1008.94
2018-12-16T01:14:44.769Z,1008.87
2018-12-16T01:15:53.435Z,1008.91
2018-12-16T01:17:02.093Z,1008.86
2018-12-16T01:18:10.757Z,1008.86
2018-12-16T01:19:19.422Z,1008.85
2018-12-16T01:20:28.346Z,1008.81
2018-12-16T01:21:37.005Z,1008.81
2018-12-16T01:22:45.671Z,1008.84
2018-12-16T01:23:54.346Z,1008.8
2018-12-16T01:25:03.006Z,1008.8
2018-12-16T01:26:11.678Z,1008.81
2018-12-16T01:27:20.338Z,1008.76
2018-12-16T01:28:29.000Z,1008.79
2018-12-16T01:29:37.658Z,1008.74
2018-12-16T01:30:46.323Z,1008.73
2018-12-16T01:31:54.985Z,1008.72
2018-12-16T01:33:03.648Z,1008.68
2018-12-16T01:34:12.310Z,1008.65
2018-12-16T01:35:20.984Z,1008.63
2018-12-16T01:36:29.894Z,1008.63
2018-12-16T01:37:38.561Z,1008.63
2018-12-16T01:38:47.480Z,1008.61
2018-12-16T01:39:56.154Z,1008.54
2018-12-16T01:41:04.821Z,1008.5
2018-12-16T01:42:13.482Z,1008.47
2018-12-16T01:43:22.142Z,1008.44
2018-12-16T01:44:30.803Z,1008.41
2018-12-16T01:45:39.469Z,1008.36
2018-12-16T01:46:48.131Z,1008.33
2018-12-16T01:47:56.791Z,1008.32
2018-12-16T01:49:05.451Z,1008.35
2018-12-16T01:50:14.116Z,1008.34
2018-12-16T01:51:23.043Z,1008.31
2018-12-16T01:52:31.703Z,1008.28
2018-12-16T01:53:40.358Z,1008.31
2018-12-16T01:54:49.035Z,1008.25
2018-12-16T01:55:58.205Z,1008.23
2018-12-16T01:57:07.118Z,1008.22
2018-12-16T01:58:16.039Z,1008.21
2018-12-16T01:59:24.703Z,1008.17
2018-12-16T02:00:33.372Z,1008.19
2018-12-16T02:01:42.038Z,1008.17
2018-12-16T02:02:50.701Z,1008.14
2018-12-16T02:03:59.361Z,1008.13
2018-12-16T02:05:08.289Z,1008.09
2018-12-16T02:06:17.064Z,1008.06
2018-12-16T02:07:25.736Z,1008.04
2018-12-16T02:08:34.391Z,1008.04
2018-12-16T02:09:43.064Z,1008
2018-12-16T02:10:51.973Z,1007.99
2018-12-16T02:12:00.642Z,1008
2018-12-16T02:13:09.366Z,1008.03
2018-12-16T02:14:18.033Z,1007.99
2018-12-16T02:15:26.700Z,1008
2018-12-16T02:16:35.385Z,1007.98
2018-12-16T02:17:44.046Z,1007.97
2018-12-16T02:18:52.700Z,1007.95
2018-12-16T02:20:01.366Z,1007.98
2018-12-16T02:21:10.279Z,1007.98
2018-12-16T02:22:18.958Z,1007.89
2018-12-16T02:23:27.618Z,1007.85
2018-12-16T02:24:36.601Z,1007.78
2018-12-16T02:25:45.257Z,1007.78
2018-12-16T02:26:53.930Z,1007.71
2018-12-16T02:28:02.595Z,1007.73
2018-12-16T02:29:11.262Z,1007.74
2018-12-16T02:30:20.172Z,1007.71
2018-12-16T02:31:28.862Z,1007.72
2018-12-16T02:32:37.788Z,1007.63
2018-12-16T02:33:46.471Z,1007.64
2018-12-16T02:34:55.160Z,1007.62
2018-12-16T02:36:03.835Z,1007.64
2018-12-16T02:37:12.523Z,1007.63
2018-12-16T02:38:21.186Z,1007.6
2018-12-16T02:39:29.855Z,1007.57
2018-12-16T02:40:38.513Z,1007.55
2018-12-16T02:41:47.192Z,1007.53
2018-12-16T02:42:55.848Z,1007.48
2018-12-16T02:44:04.524Z,1007.46
2018-12-16T02:45:13.178Z,1007.41
2018-12-16T02:46:22.393Z,1007.4
2018-12-16T02:47:31.064Z,1007.38
2018-12-16T02:48:39.739Z,1007.37
2018-12-16T02:49:48.397Z,1007.34
2018-12-16T02:50:57.076Z,1007.31
2018-12-16T02:52:05.746Z,1007.27
2018-12-16T02:53:14.443Z,1007.23
2018-12-16T02:54:23.116Z,1007.2
2018-12-16T02:55:31.778Z,1007.19
2018-12-16T02:56:40.521Z,1007.15
2018-12-16T02:57:49.185Z,1007.14
2018-12-16T02:58:57.873Z,1007.2
2018-12-16T03:00:06.565Z,1007.2
2018-12-16T03:01:15.503Z,1007.23
2018-12-16T03:02:24.187Z,1007.2
2018-12-16T03:03:32.861Z,1007.19
2018-12-16T03:04:41.536Z,1007.09
2018-12-16T03:05:50.452Z,1007.1
2018-12-16T03:06:59.135Z,1007.08
2018-12-16T03:08:07.812Z,1007.09
2018-12-16T03:09:16.489Z,1007.04
2018-12-16T03:10:25.154Z,1007
2018-12-16T03:11:33.841Z,1006.98
2018-12-16T03:12:43.136Z,1006.97
2018-12-16T03:13:51.834Z,1006.95
2018-12-16T03:15:00.847Z,1006.86
2018-12-16T03:16:09.519Z,1006.84
2018-12-16T03:17:18.195Z,1006.81
2018-12-16T03:18:26.875Z,1006.77
2018-12-16T03:19:35.541Z,1006.71
2018-12-16T03:20:44.199Z,1006.61
2018-12-16T03:21:53.392Z,1006.58
2018-12-16T03:23:02.082Z,1006.55
2018-12-16T03:24:16.900Z,1006.57
2018-12-16T03:25:25.574Z,1006.58
2018-12-16T03:26:35.982Z,1006.58
2018-12-16T03:27:44.860Z,1006.6
2018-12-16T03:28:53.536Z,1006.57
2018-12-16T03:30:02.214Z,1006.53
2018-12-16T03:31:11.454Z,1006.51
2018-12-16T03:32:20.670Z,1006.54
2018-12-16T03:33:29.638Z,1006.5
2018-12-16T03:34:38.311Z,1006.5
2018-12-16T03:35:46.980Z,1006.54
2018-12-16T03:36:55.645Z,1006.53
2018-12-16T03:38:04.329Z,1006.53
2018-12-16T03:39:13.009Z,1006.52
2018-12-16T03:40:21.677Z,1006.5
2018-12-16T03:41:30.340Z,1006.45
2018-12-16T03:42:39.261Z,1006.44
2018-12-16T03:43:48.210Z,1006.45
2018-12-16T03:44:56.886Z,1006.38
2018-12-16T03:46:06.099Z,1006.34
2018-12-16T03:47:14.767Z,1006.32
2018-12-16T03:48:23.696Z,1006.28
2018-12-16T03:49:32.385Z,1006.26
2018-12-16T03:50:41.053Z,1006.21
2018-12-16T03:51:49.982Z,1006.25
2018-12-16T03:52:58.658Z,1006.27
2018-12-16T03:54:07.349Z,1006.24
2018-12-16T03:55:16.525Z,1006.28
2018-12-16T03:56:25.223Z,1006.3
2018-12-16T03:57:33.892Z,1006.26
2018-12-16T03:58:42.575Z,1006.26
2018-12-16T03:59:51.343Z,1006.2
2018-12-16T04:01:00.008Z,1006.22
2018-12-16T04:02:08.936Z,1006.1
2018-12-16T04:03:17.617Z,1006.1
2018-12-16T04:04:26.536Z,1006.13
2018-12-16T04:05:35.203Z,1006.06
2018-12-16T04:06:43.866Z,1006.09
2018-12-16T04:07:52.794Z,1006.06
2018-12-16T04:09:01.463Z,1006.05
2018-12-16T04:10:10.164Z,1006.04
2018-12-16T04:11:18.851Z,1006.04
2018-12-16T04:12:27.510Z,1005.99
2018-12-16T04:13:36.191Z,1006
2018-12-16T04:14:44.876Z,1006
2018-12-16T04:15:53.819Z,1005.96
2018-12-16T04:17:02.488Z,1005.93
2018-12-16T04:18:11.421Z,1005.98
2018-12-16T04:19:20.081Z,1005.97
2018-12-16T04:20:28.827Z,1005.97
2018-12-16T04:21:37.739Z,1005.98
2018-12-16T04:22:46.407Z,1005.95
2018-12-16T04:23:55.073Z,1005.95
2018-12-16T04:25:04.004Z,1005.97
2018-12-16T04:26:12.674Z,1006
2018-12-16T04:27:21.335Z,1006.03
2018-12-16T04:28:30.318Z,1005.99
2018-12-16T04:29:38.987Z,1005.99
2018-12-16T04:30:47.924Z,1005.95
2018-12-16T04:31:56.582Z,1005.94
2018-12-16T04:33:05.252Z,1005.99
2018-12-16T04:34:13.920Z,1006
2018-12-16T04:35:22.587Z,1006.03
2018-12-16T04:36:31.250Z,1006
2018-12-16T04:37:40.189Z,1006.02
2018-12-16T04:38:48.841Z,1006.01
2018-12-16T04:39:57.521Z,1006
2018-12-16T04:41:06.189Z,1006.02
2018-12-16T04:42:14.864Z,1005.99
2018-12-16T04:43:23.532Z,1006.03
2018-12-16T04:44:32.463Z,1005.96
2018-12-16T04:45:41.135Z,1005.94
2018-12-16T04:46:49.812Z,1005.94
2018-12-16T04:47:58.745Z,1005.91
2018-12-16T04:49:07.653Z,1005.93
2018-12-16T04:50:16.336Z,1005.89
2018-12-16T04:51:24.999Z,1005.85
2018-12-16T04:52:33.681Z,1005.86
2018-12-16T04:53:42.365Z,1005.81
2018-12-16T04:54:51.036Z,1005.8
2018-12-16T04:55:59.966Z,1005.74
2018-12-16T04:57:08.652Z,1005.82
2018-12-16T04:58:17.307Z,1005.77
2018-12-16T04:59:25.985Z,1005.78
2018-12-16T05:00:34.651Z,1005.77
2018-12-16T05:01:43.571Z,1005.74
2018-12-16T05:02:52.246Z,1005.79
2018-12-16T05:04:00.914Z,1005.75
2018-12-16T05:05:09.592Z,1005.77
2018-12-16T05:06:19.577Z,1005.75
2018-12-16T05:07:28.422Z,1005.8
2018-12-16T05:08:37.114Z,1005.84
2018-12-16T05:09:45.776Z,1005.82
2018-12-16T05:10:54.462Z,1005.81
2018-12-16T05:12:03.149Z,1005.79
2018-12-16T05:13:11.897Z,1005.79
2018-12-16T05:14:20.561Z,1005.79
2018-12-16T05:15:29.492Z,1005.81
2018-12-16T05:16:38.147Z,1005.79
2018-12-16T05:17:46.820Z,1005.79
2018-12-16T05:18:55.491Z,1005.74
2018-12-16T05:20:04.173Z,1005.75
2018-12-16T05:21:12.834Z,1005.73
2018-12-16T05:22:21.492Z,1005.74
2018-12-16T05:23:30.162Z,1005.64
2018-12-16T05:24:44.319Z,1005.61
2018-12-16T05:25:52.987Z,1005.57
2018-12-16T05:27:01.652Z,1005.57
2018-12-16T05:28:10.320Z,1005.58
2018-12-16T05:29:19.232Z,1005.6
2018-12-16T05:30:27.904Z,1005.61
2018-12-16T05:31:36.573Z,1005.54
2018-12-16T05:32:45.500Z,1005.55
2018-12-16T05:33:54.159Z,1005.6
2018-12-16T05:35:02.837Z,1005.57
2018-12-16T05:36:11.508Z,1005.6
2018-12-16T05:37:20.436Z,1005.62
2018-12-16T05:38:29.088Z,1005.61
2018-12-16T05:39:37.752Z,1005.57
2018-12-16T05:40:46.420Z,1005.55
2018-12-16T05:41:55.084Z,1005.51
2018-12-16T05:43:04.003Z,1005.51
2018-12-16T05:44:12.662Z,1005.54
2018-12-16T05:45:21.334Z,1005.54
2018-12-16T05:46:30.244Z,1005.53
2018-12-16T05:47:38.920Z,1005.54
2018-12-16T05:48:47.576Z,1005.53
2018-12-16T05:49:56.242Z,1005.48
2018-12-16T05:51:04.902Z,1005.51
2018-12-16T05:52:13.576Z,1005.45
2018-12-16T05:53:22.233Z,1005.47
2018-12-16T05:54:30.903Z,1005.5
2018-12-16T05:55:39.568Z,1005.52
2018-12-16T05:56:48.245Z,1005.52
2018-12-16T05:57:56.904Z,1005.53
2018-12-16T05:59:05.583Z,1005.51
2018-12-16T06:00:14.501Z,1005.53
2018-12-16T06:01:23.166Z,1005.51
2018-12-16T06:02:31.836Z,1005.51
2018-12-16T06:03:40.501Z,1005.44
2018-12-16T06:04:49.160Z,1005.4
2018-12-16T06:05:57.904Z,1005.42
2018-12-16T06:07:06.574Z,1005.43
2018-12-16T06:08:15.238Z,1005.45
2018-12-16T06:09:24.159Z,1005.51
2018-12-16T06:10:32.820Z,1005.52
2018-12-16T06:11:41.485Z,1005.53
2018-12-16T06:12:50.151Z,1005.52
2018-12-16T06:13:58.823Z,1005.53
2018-12-16T06:15:07.481Z,1005.55
2018-12-16T06:16:16.147Z,1005.57
2018-12-16T06:17:24.811Z,1005.55
2018-12-16T06:18:33.734Z,1005.51
2018-12-16T06:19:42.407Z,1005.56
2018-12-16T06:20:51.074Z,1005.53
2018-12-16T06:21:59.738Z,1005.5
2018-12-16T06:23:08.660Z,1005.47
2018-12-16T06:24:17.324Z,1005.53
2018-12-16T06:25:25.996Z,1005.49
2018-12-16T06:26:34.676Z,1005.45
2018-12-16T06:27:43.383Z,1005.45
2018-12-16T06:28:52.047Z,1005.43
2018-12-16T06:30:00.705Z,1005.41
2018-12-16T06:31:09.372Z,1005.47
2018-12-16T06:32:18.037Z,1005.49
2018-12-16T06:33:26.967Z,1005.55
2018-12-16T06:34:35.628Z,1005.47
2018-12-16T06:35:44.297Z,1005.46
2018-12-16T06:36:52.960Z,1005.48
2018-12-16T06:38:01.630Z,1005.47
2018-12-16T06:39:10.297Z,1005.53
2018-12-16T06:40:18.962Z,1005.5
2018-12-16T06:41:27.630Z,1005.48
2018-12-16T06:42:36.284Z,1005.49
2018-12-16T06:43:44.959Z,1005.48
2018-12-16T06:44:53.627Z,1005.44
2018-12-16T06:46:02.291Z,1005.45
2018-12-16T06:47:10.956Z,1005.46
2018-12-16T06:48:19.946Z,1005.49
2018-12-16T06:49:28.682Z,1005.47
2018-12-16T06:50:37.349Z,1005.42
2018-12-16T06:51:46.033Z,1005.4
2018-12-16T06:52:54.705Z,1005.4
2018-12-16T06:54:03.371Z,1005.39
2018-12-16T06:55:12.293Z,1005.43
2018-12-16T06:56:20.967Z,1005.42
2018-12-16T06:57:29.715Z,1005.45
2018-12-16T06:58:38.382Z,1005.48
2018-12-16T06:59:47.043Z,1005.49
2018-12-16T07:00:55.712Z,1005.48
2018-12-16T07:02:04.383Z,1005.51
2018-12-16T07:03:13.055Z,1005.51
2018-12-16T07:04:21.713Z,1005.5
2018-12-16T07:05:30.394Z,1005.49
2018-12-16T07:06:39.051Z,1005.47
2018-12-16T07:07:47.723Z,1005.46
2018-12-16T07:08:56.388Z,1005.45
2018-12-16T07:10:05.068Z,1005.44
2018-12-16T07:11:13.732Z,1005.47
2018-12-16T07:12:22.431Z,1005.49
2018-12-16T07:13:31.379Z,1005.49
2018-12-16T07:14:40.102Z,1005.51
2018-12-16T07:15:48.832Z,1005.53
2018-12-16T07:16:57.497Z,1005.54
2018-12-16T07:18:06.236Z,1005.61
2018-12-16T07:19:14.931Z,1005.62
2018-12-16T07:20:23.925Z,1005.63
2018-12-16T07:21:32.619Z,1005.64
2018-12-16T07:22:41.330Z,1005.65
2018-12-16T07:23:51.562Z,1005.64
2018-12-16T07:25:00.380Z,1005.64
2018-12-16T07:26:09.050Z,1005.7
2018-12-16T07:27:18.035Z,1005.67
2018-12-16T07:28:26.752Z,1005.68
2018-12-16T07:29:35.724Z,1005.66
2018-12-16T07:30:44.414Z,1005.64
2018-12-16T07:31:53.121Z,1005.62
2018-12-16T07:33:01.812Z,1005.62
2018-12-16T07:34:10.727Z,1005.62
2018-12-16T07:35:19.434Z,1005.62
2018-12-16T07:36:28.168Z,1005.59
2018-12-16T07:37:36.855Z,1005.62
2018-12-16T07:38:45.550Z,1005.65
2018-12-16T07:39:54.249Z,1005.6
2018-12-16T07:41:03.004Z,1005.55
2018-12-16T07:42:12.002Z,1005.56
2018-12-16T07:43:20.668Z,1005.5
2018-12-16T07:44:29.391Z,1005.5
2018-12-16T07:45:38.075Z,1005.48
2018-12-16T07:46:46.768Z,1005.5
2018-12-16T07:47:55.530Z,1005.48
2018-12-16T07:49:04.472Z,1005.53
2018-12-16T07:50:13.737Z,1005.49
2018-12-16T07:51:22.440Z,1005.55
2018-12-16T07:52:31.155Z,1005.54
2018-12-16T07:53:39.857Z,1005.56
2018-12-16T07:54:48.633Z,1005.55
2018-12-16T07:55:57.290Z,1005.55
2018-12-16T07:57:05.985Z,1005.52
2018-12-16T07:58:14.984Z,1005.52
2018-12-16T07:59:23.989Z,1005.58
2018-12-16T08:00:32.705Z,1005.58
2018-12-16T08:01:42.717Z,1005.56
2018-12-16T08:02:51.424Z,1005.57
2018-12-16T08:04:00.133Z,1005.6
2018-12-16T08:05:08.808Z,1005.64
2018-12-16T08:06:17.536Z,1005.59
2018-12-16T08:07:26.221Z,1005.64
2018-12-16T08:08:34.886Z,1005.64
2018-12-16T08:09:43.549Z,1005.63
2018-12-16T08:10:52.460Z,1005.66
2018-12-16T08:12:01.376Z,1005.62
2018-12-16T08:13:10.056Z,1005.68
2018-12-16T08:14:18.726Z,1005.67
2018-12-16T08:15:27.392Z,1005.69
2018-12-16T08:16:36.062Z,1005.71
2018-12-16T08:17:44.723Z,1005.67
2018-12-16T08:18:53.393Z,1005.66
2018-12-16T08:20:09.300Z,1005.65
2018-12-16T08:21:18.053Z,1005.68
2018-12-16T08:22:26.717Z,1005.72
2018-12-16T08:23:35.550Z,1005.69
2018-12-16T08:24:44.268Z,1005.67
2018-12-16T08:25:53.188Z,1005.69
2018-12-16T08:27:01.845Z,1005.66
2018-12-16T08:28:10.511Z,1005.66
2018-12-16T08:29:19.178Z,1005.67
2018-12-16T08:30:27.866Z,1005.67
2018-12-16T08:31:36.524Z,1005.64
2018-12-16T08:32:45.184Z,1005.7
2018-12-16T08:33:53.907Z,1005.63
2018-12-16T08:35:02.569Z,1005.6
2018-12-16T08:36:11.238Z,1005.59
2018-12-16T08:37:19.904Z,1005.58
2018-12-16T08:38:28.583Z,1005.62
2018-12-16T08:39:37.245Z,1005.61
2018-12-16T08:40:47.240Z,1005.58
2018-12-16T08:41:55.895Z,1005.61
2018-12-16T08:43:04.559Z,1005.63
2018-12-16T08:44:13.235Z,1005.59
2018-12-16T08:45:21.906Z,1005.61
2018-12-16T08:46:30.579Z,1005.65
2018-12-16T08:47:39.242Z,1005.64
2018-12-16T08:48:47.921Z,1005.65
2018-12-16T08:49:56.587Z,1005.72
2018-12-16T08:51:05.260Z,1005.7
2018-12-16T08:52:13.917Z,1005.67
2018-12-16T08:53:22.581Z,1005.68
2018-12-16T08:54:31.242Z,1005.68
2018-12-16T08:55:39.914Z,1005.68
2018-12-16T08:56:48.580Z,1005.64
2018-12-16T08:57:57.503Z,1005.7
2018-12-16T08:59:06.173Z,1005.68
2018-12-16T09:00:14.908Z,1005.69
2018-12-16T09:01:23.574Z,1005.72
2018-12-16T09:02:33.789Z,1005.73
2018-12-16T09:03:42.453Z,1005.73
2018-12-16T09:04:51.115Z,1005.77
2018-12-16T09:05:59.775Z,1005.74
2018-12-16T09:07:08.445Z,1005.78
2018-12-16T09:08:17.107Z,1005.74
2018-12-16T09:09:25.776Z,1005.77
2018-12-16T09:10:34.538Z,1005.79
2018-12-16T09:11:43.464Z,1005.81
2018-12-16T09:12:52.125Z,1005.79
2018-12-16T09:14:01.049Z,1005.79
2018-12-16T09:15:09.742Z,1005.79
2018-12-16T09:16:18.407Z,1005.79
2018-12-16T09:17:27.070Z,1005.8
2018-12-16T09:18:35.992Z,1005.83
2018-12-16T09:19:44.914Z,1005.83
2018-12-16T09:20:53.829Z,1005.84
2018-12-16T09:22:02.761Z,1005.85
2018-12-16T09:23:11.422Z,1005.81
2018-12-16T09:24:20.093Z,1005.84
2018-12-16T09:25:28.754Z,1005.84
2018-12-16T09:26:37.941Z,1005.85
2018-12-16T09:27:46.604Z,1005.84
2018-12-16T09:28:55.278Z,1005.87
2018-12-16T09:30:03.942Z,1005.87
2018-12-16T09:31:12.608Z,1005.87
2018-12-16T09:32:21.268Z,1005.85
2018-12-16T09:33:29.935Z,1005.84
2018-12-16T09:34:38.598Z,1005.88
2018-12-16T09:35:47.267Z,1005.85
2018-12-16T09:36:55.928Z,1005.85
2018-12-16T09:38:04.603Z,1005.84
2018-12-16T09:39:13.338Z,1005.87
2018-12-16T09:40:22.006Z,1005.85
2018-12-16T09:41:30.678Z,1005.87
2018-12-16T09:42:39.346Z,1005.87
2018-12-16T09:43:48.016Z,1005.84
2018-12-16T09:44:56.680Z,1005.85
2018-12-16T09:46:05.352Z,1005.86
2018-12-16T09:47:14.020Z,1005.87
2018-12-16T09:48:22.687Z,1005.87
2018-12-16T09:49:31.352Z,1005.83
2018-12-16T09:50:40.284Z,1005.84
2018-12-16T09:51:49.701Z,1005.84
2018-12-16T09:52:58.437Z,1005.82
2018-12-16T09:54:07.101Z,1005.83
2018-12-16T09:55:15.784Z,1005.8
2018-12-16T09:56:24.454Z,1005.84
2018-12-16T09:57:33.137Z,1005.82
2018-12-16T09:58:41.801Z,1005.82
2018-12-16T09:59:50.478Z,1005.84
2018-12-16T10:00:59.158Z,1005.83
2018-12-16T10:02:07.816Z,1005.82
2018-12-16T10:03:16.487Z,1005.84
2018-12-16T10:04:25.182Z,1005.83
2018-12-16T10:05:33.869Z,1005.8
2018-12-16T10:06:42.782Z,1005.83
2018-12-16T10:07:51.719Z,1005.82
2018-12-16T10:09:00.378Z,1005.77
2018-12-16T10:10:09.125Z,1005.77
2018-12-16T10:11:17.809Z,1005.75
2018-12-16T10:12:26.480Z,1005.76
2018-12-16T10:13:35.138Z,1005.77
2018-12-16T10:14:43.802Z,1005.76
2018-12-16T10:15:52.737Z,1005.76
2018-12-16T10:17:01.406Z,1005.77
2018-12-16T10:18:10.074Z,1005.74
2018-12-16T10:19:18.732Z,1005.74
2018-12-16T10:20:27.403Z,1005.69
2018-12-16T10:21:36.063Z,1005.72
2018-12-16T10:22:45.178Z,1005.68
2018-12-16T10:23:53.838Z,1005.65
2018-12-16T10:25:02.763Z,1005.64
2018-12-16T10:26:11.427Z,1005.64
2018-12-16T10:27:20.096Z,1005.63
2018-12-16T10:28:28.751Z,1005.6
2018-12-16T10:29:37.425Z,1005.61
2018-12-16T10:30:46.089Z,1005.62
2018-12-16T10:31:55.357Z,1005.57
2018-12-16T10:33:04.025Z,1005.58
2018-12-16T10:34:12.685Z,1005.56
2018-12-16T10:35:21.362Z,1005.56
2018-12-16T10:36:30.291Z,1005.55
2018-12-16T10:37:39.048Z,1005.57
2018-12-16T10:38:47.725Z,1005.54
2018-12-16T10:39:56.402Z,1005.54
2018-12-16T10:41:05.062Z,1005.54
2018-12-16T10:42:13.735Z,1005.6
2018-12-16T10:43:23.305Z,1005.58
2018-12-16T10:44:31.972Z,1005.58
2018-12-16T10:45:40.626Z,1005.55
2018-12-16T10:46:49.300Z,1005.58
2018-12-16T10:47:58.306Z,1005.51
2018-12-16T10:49:06.977Z,1005.52
2018-12-16T10:50:15.641Z,1005.49
2018-12-16T10:51:24.319Z,1005.5
2018-12-16T10:52:32.991Z,1005.44
2018-12-16T10:53:41.663Z,1005.42
2018-12-16T10:54:50.345Z,1005.42
2018-12-16T10:56:05.052Z,1005.43
2018-12-16T10:57:13.728Z,1005.43
2018-12-16T10:58:22.388Z,1005.44
2018-12-16T10:59:31.088Z,1005.43
2018-12-16T11:00:40.660Z,1005.43
2018-12-16T11:01:49.461Z,1005.4
2018-12-16T11:02:58.128Z,1005.43
2018-12-16T11:04:06.803Z,1005.43
2018-12-16T11:05:15.460Z,1005.43
2018-12-16T11:06:24.126Z,1005.44
2018-12-16T11:07:32.795Z,1005.46
2018-12-16T11:08:41.474Z,1005.42
2018-12-16T11:09:50.399Z,1005.37
2018-12-16T11:10:59.059Z,1005.41
2018-12-16T11:12:07.715Z,1005.37
2018-12-16T11:13:16.383Z,1005.4
2018-12-16T11:14:25.055Z,1005.32
2018-12-16T11:15:33.720Z,1005.3
2018-12-16T11:16:42.389Z,1005.31
2018-12-16T11:17:51.041Z,1005.32
2018-12-16T11:18:59.716Z,1005.34
2018-12-16T11:20:08.381Z,1005.29
2018-12-16T11:21:17.048Z,1005.3
2018-12-16T11:22:25.709Z,1005.29
2018-12-16T11:23:34.648Z,1005.3
2018-12-16T11:24:43.562Z,1005.28
2018-12-16T11:25:52.227Z,1005.29
2018-12-16T11:27:01.140Z,1005.28
2018-12-16T11:28:10.868Z,1005.27
2018-12-16T11:29:19.533Z,1005.25
2018-12-16T11:30:28.203Z,1005.24
2018-12-16T11:31:36.874Z,1005.2
2018-12-16T11:32:45.536Z,1005.18
2018-12-16T11:33:54.466Z,1005.17
2018-12-16T11:35:03.125Z,1005.18
2018-12-16T11:36:11.804Z,1005.17
2018-12-16T11:37:20.465Z,1005.22
2018-12-16T11:38:29.146Z,1005.25
2018-12-16T11:39:37.817Z,1005.23
2018-12-16T11:40:46.494Z,1005.27
2018-12-16T11:41:55.166Z,1005.29
2018-12-16T11:43:03.842Z,1005.28
2018-12-16T11:44:12.507Z,1005.27
2018-12-16T11:45:21.445Z,1005.25
2018-12-16T11:46:30.118Z,1005.25
2018-12-16T11:47:39.045Z,1005.23
2018-12-16T11:48:47.715Z,1005.2
2018-12-16T11:49:56.411Z,1005.19
2018-12-16T11:51:05.345Z,1005.17
2018-12-16T11:52:14.031Z,1005.16
2018-12-16T11:53:22.697Z,1005.15
2018-12-16T11:54:31.357Z,1005.16
2018-12-16T11:55:40.028Z,1005.19
2018-12-16T11:56:48.694Z,1005.09
2018-12-16T11:57:57.626Z,1005.07
2018-12-16T11:59:06.286Z,1005.06
2018-12-16T12:00:14.965Z,1005.06
2018-12-16T12:01:23.636Z,1005.13
2018-12-16T12:02:32.867Z,1005.16
2018-12-16T12:03:41.676Z,1005.18
2018-12-16T12:04:50.349Z,1005.18
2018-12-16T12:05:59.018Z,1005.22
2018-12-16T12:07:07.689Z,1005.19
2018-12-16T12:08:16.355Z,1005.19
2018-12-16T12:09:25.013Z,1005.16
2018-12-16T12:10:33.675Z,1005.19
2018-12-16T12:11:42.338Z,1005.18
2018-12-16T12:12:51.011Z,1005.19
2018-12-16T12:13:59.672Z,1005.17
2018-12-16T12:15:08.340Z,1005.13
2018-12-16T12:16:17.018Z,1005.15
2018-12-16T12:17:25.687Z,1005.18
2018-12-16T12:18:34.642Z,1005.19
2018-12-16T12:19:43.372Z,1005.17
2018-12-16T12:20:52.288Z,1005.16
2018-12-16T12:22:04.306Z,1005.18
2018-12-16T12:23:13.125Z,1005.21
2018-12-16T12:24:21.792Z,1005.18
2018-12-16T12:25:31.475Z,1005.17
2018-12-16T12:26:40.493Z,1005.13
2018-12-16T12:27:49.419Z,1005.15
2018-12-16T12:28:58.101Z,1005.1
2018-12-16T12:30:06.772Z,1005.11
2018-12-16T12:31:15.435Z,1005.12
2018-12-16T12:32:24.116Z,1005.09
2018-12-16T12:33:33.041Z,1005.1
2018-12-16T12:34:41.703Z,1005.07
2018-12-16T12:35:50.367Z,1005.08
2018-12-16T12:36:59.041Z,1005.11
2018-12-16T12:38:07.703Z,1005.12
2018-12-16T12:39:16.373Z,1005.13
2018-12-16T12:40:25.084Z,1005.11
2018-12-16T12:41:33.753Z,1005.11
2018-12-16T12:42:42.419Z,1005.11
2018-12-16T12:43:51.088Z,1005.1
2018-12-16T12:44:59.756Z,1005.13
2018-12-16T12:46:08.770Z,1005.12
2018-12-16T12:47:17.437Z,1005.14
2018-12-16T12:48:26.102Z,1005.17
2018-12-16T12:49:35.183Z,1005.17
2018-12-16T12:50:49.471Z,1005.11
2018-12-16T12:51:58.171Z,1005.16
2018-12-16T12:53:06.842Z,1005.15
2018-12-16T12:54:15.504Z,1005.18
2018-12-16T12:55:26.864Z,1005.17
2018-12-16T12:56:36.031Z,1005.18
2018-12-16T12:57:44.703Z,1005.2
2018-12-16T12:58:53.369Z,1005.21
2018-12-16T13:00:02.040Z,1005.24
2018-12-16T13:01:10.711Z,1005.21
2018-12-16T13:02:19.640Z,1005.22
2018-12-16T13:03:28.314Z,1005.19
2018-12-16T13:04:37.236Z,1005.15
2018-12-16T13:05:45.909Z,1005.16
2018-12-16T13:06:54.883Z,1005.15
2018-12-16T13:08:03.566Z,1005.11
2018-12-16T13:09:12.229Z,1005.14
2018-12-16T13:10:20.895Z,1005.12
2018-12-16T13:11:29.558Z,1005.12
2018-12-16T13:12:38.231Z,1005.13
2018-12-16T13:13:46.895Z,1005.16
2018-12-16T13:14:55.560Z,1005.14
2018-12-16T13:16:04.822Z,1005.19
2018-12-16T13:17:13.501Z,1005.18
2018-12-16T13:18:22.419Z,1005.2
2018-12-16T13:19:31.084Z,1005.18
2018-12-16T13:20:39.751Z,1005.15
2018-12-16T13:21:48.416Z,1005.19
2018-12-16T13:22:57.353Z,1005.13
2018-12-16T13:24:06.016Z,1005.16
2018-12-16T13:25:14.934Z,1005.13
2018-12-16T13:26:23.853Z,1005.15
2018-12-16T13:27:32.849Z,1005.15
2018-12-16T13:28:41.516Z,1005.15
2018-12-16T13:29:50.456Z,1005.15
2018-12-16T13:30:59.123Z,1005.13
2018-12-16T13:32:07.795Z,1005.15
2018-12-16T13:33:16.461Z,1005.14
2018-12-16T13:34:25.149Z,1005.13
2018-12-16T13:35:34.066Z,1005.15
2018-12-16T13:36:42.802Z,1005.14
2018-12-16T13:37:52.328Z,1005.21
2018-12-16T13:39:01.000Z,1005.26
2018-12-16T13:40:09.677Z,1005.33
2018-12-16T13:41:18.591Z,1005.35
2018-12-16T13:42:27.259Z,1005.28
2018-12-16T13:43:35.939Z,1005.31
2018-12-16T13:44:44.610Z,1005.33
2018-12-16T13:45:53.522Z,1005.37
2018-12-16T13:47:02.208Z,1005.36
2018-12-16T13:48:10.877Z,1005.46
2018-12-16T13:49:19.808Z,1005.47
2018-12-16T13:50:28.467Z,1005.47
2018-12-16T13:51:37.137Z,1005.46
2018-12-16T13:52:46.066Z,1005.39
2018-12-16T13:53:54.746Z,1005.37
2018-12-16T13:55:03.416Z,1005.34